createdAt,value
2023-02-22T00:05:02.370Z,45.05
2023-02-22T00:10:09.483Z,41.53
2023-02-22T00:15:14.596Z,45.20
2023-02-22T00:20:20.871Z,43.22
2023-02-22T00:25:25.196Z,44.50
2023-02-22T00:30:30.416Z,48.75
2023-02-22T00:35:33.152Z,38.70
2023-02-22T00:40:36.083Z,46.25
2023-02-22T00:45:38.788Z,49.53
2023-02-22T00:50:41.639Z,44.47
2023-02-22T00:55:44.351Z,46.15
2023-02-22T01:00:47.556Z,47.47
2023-02-22T01:05:50.462Z,42.40
2023-02-22T01:10:53.327Z,48.25
2023-02-22T01:15:57.136Z,43.80
2023-02-22T01:21:02.087Z,48.47
2023-02-22T01:26:06.307Z,50.33
2023-02-22T01:31:09.758Z,50.22
2023-02-22T01:36:12.655Z,49.92
2023-02-22T01:41:18.744Z,50.38
2023-02-22T01:46:27.025Z,44.28
2023-02-22T01:51:38.164Z,36.72
2023-02-22T01:56:46.732Z,46.40
2023-02-22T02:01:49.637Z,48.05
2023-02-22T02:06:54.145Z,43.35
2023-02-22T02:12:01.124Z,50.92
2023-02-22T02:17:07.290Z,41.42
2023-02-22T02:22:31.015Z,40.08
2023-02-22T02:28:03.334Z,39.63
2023-02-22T02:33:27.060Z,36.42
2023-02-22T02:38:47.834Z,36.20
2023-02-22T02:44:02.519Z,40.85
2023-02-22T02:49:25.825Z,39.10
2023-02-22T02:54:28.612Z,39.53
2023-02-22T02:59:39.614Z,40.60
2023-02-22T03:05:02.646Z,40.50
2023-02-22T03:10:44.463Z,36.22
2023-02-22T03:16:12.158Z,36.72
2023-02-22T03:21:42.021Z,38.10
2023-02-22T03:26:59.844Z,37.17
2023-02-22T03:32:04.772Z,37.90
2023-02-22T03:37:20.376Z,35.65
2023-02-22T03:42:36.205Z,34.92
2023-02-22T03:47:44.727Z,36.85
2023-02-22T03:52:48.275Z,35.20
2023-02-22T03:58:00.317Z,44.30
2023-02-22T04:03:05.970Z,36.22
2023-02-22T04:08:08.786Z,39.45
2023-02-22T04:13:14.931Z,40.72
2023-02-22T04:18:21.968Z,34.58
2023-02-22T04:23:27.322Z,34.70
2023-02-22T04:28:36.454Z,33.45
2023-02-22T04:33:59.542Z,34.50
2023-02-22T04:39:06.239Z,33.40
2023-02-22T04:44:09.225Z,36.70
2023-02-22T04:49:11.994Z,34.28
2023-02-22T04:54:17.954Z,32.47
2023-02-22T04:59:23.013Z,30.02
2023-02-22T05:04:31.515Z,30.23
2023-02-22T05:09:34.501Z,30.85
2023-02-22T05:14:37.450Z,29.95
2023-02-22T05:19:40.205Z,28.50
2023-02-22T05:24:44.256Z,31.88
2023-02-22T05:29:50.023Z,29.55
2023-02-22T05:34:52.762Z,32.83
2023-02-22T05:39:56.081Z,31.05
2023-02-22T05:45:03.256Z,29.42
2023-02-22T05:50:07.156Z,30.35
2023-02-22T05:55:10.947Z,29.95
2023-02-22T06:00:29.711Z,27.65
2023-02-22T06:05:32.995Z,27.60
2023-02-22T06:10:36.818Z,27.10
2023-02-22T06:15:54.950Z,23.83
2023-02-22T06:20:58.702Z,22.05
2023-02-22T06:26:01.514Z,23.17
2023-02-22T06:31:07.192Z,21.65
2023-02-22T06:36:10.403Z,23.08
2023-02-22T06:41:13.301Z,24.13
2023-02-22T06:46:16.060Z,22.95
2023-02-22T06:51:18.993Z,23.83
2023-02-22T06:56:22.206Z,27.65
2023-02-22T07:01:24.890Z,25.83
2023-02-22T07:06:27.545Z,28.17
2023-02-22T07:11:30.394Z,28.98
2023-02-22T07:16:34.152Z,26.45
2023-02-22T07:21:36.856Z,25.48
2023-02-22T07:26:43.138Z,27.92
2023-02-22T07:31:47.341Z,29.63
2023-02-22T07:36:50.043Z,29.20
2023-02-22T07:41:52.707Z,29.90
2023-02-22T07:46:59.590Z,30.05
2023-02-22T07:52:02.289Z,33.13
2023-02-22T07:57:05.248Z,32.50
2023-02-22T08:02:16.494Z,33.92
2023-02-22T08:07:19.096Z,29.48
2023-02-22T08:12:21.708Z,33.90
2023-02-22T08:17:24.451Z,25.48
2023-02-22T08:22:30.025Z,26.67
2023-02-22T08:27:34.287Z,31.13
2023-02-22T08:32:37.068Z,33.47
2023-02-22T08:37:52.866Z,31.75
2023-02-22T08:42:55.506Z,33.97
2023-02-22T08:47:59.026Z,35.53
2023-02-22T08:53:04.556Z,35.97
2023-02-22T08:58:10.850Z,39.90
2023-02-22T09:03:15.218Z,35.88
2023-02-22T09:08:18.359Z,37.07
2023-02-22T09:13:21.066Z,37.33
2023-02-22T09:18:25.527Z,39.25
2023-02-22T09:23:28.365Z,31.77
2023-02-22T09:28:32.457Z,35.72
2023-02-22T09:33:35.130Z,33.83
2023-02-22T09:38:37.872Z,28.13
2023-02-22T09:44:15.813Z,27.88
2023-02-22T09:49:59.958Z,30.92
2023-02-22T09:55:26.720Z,27.70
2023-02-22T10:00:34.341Z,32.80
2023-02-22T10:05:42.132Z,36.55
2023-02-22T10:10:52.895Z,35.92
2023-02-22T10:16:01.614Z,33.55
2023-02-22T10:21:11.175Z,28.30
2023-02-22T10:26:32.321Z,28.63
2023-02-22T10:31:41.142Z,32.63
2023-02-22T10:36:48.969Z,32.22
2023-02-22T10:41:54.692Z,31.55
2023-02-22T10:47:00.003Z,33.13
2023-02-22T10:57:06.896Z,27.20
2023-02-22T11:02:15.752Z,30.83
2023-02-22T11:07:38.667Z,30.27
2023-02-22T11:12:45.209Z,26.58
2023-02-22T11:17:49.706Z,28.05
2023-02-22T11:22:58.720Z,30.15
2023-02-22T11:28:15.834Z,32.85
2023-02-22T11:33:24.153Z,30.77
2023-02-22T11:38:29.988Z,35.00
2023-02-22T11:43:32.917Z,28.77
2023-02-22T11:48:39.550Z,34.92
2023-02-22T11:53:45.459Z,35.78
2023-02-22T11:58:54.517Z,36.63
2023-02-22T12:04:16.233Z,34.80
2023-02-22T12:09:34.352Z,31.30
2023-02-22T12:15:03.129Z,31.63
2023-02-22T12:20:28.053Z,30.10
2023-02-22T12:25:39.186Z,30.83
2023-02-22T12:30:45.131Z,33.13
2023-02-22T12:35:58.987Z,32.47
2023-02-22T12:41:14.333Z,34.95
2023-02-22T12:46:31.367Z,34.88
2023-02-22T12:51:52.220Z,34.67
2023-02-22T12:57:04.719Z,34.10
2023-02-22T13:07:46.483Z,37.72
2023-02-22T13:12:58.116Z,37.78
2023-02-22T13:18:26.063Z,43.30
2023-02-22T13:23:41.343Z,44.70
2023-02-22T13:28:58.599Z,47.85
2023-02-22T13:34:13.518Z,54.38
2023-02-22T13:39:29.975Z,63.70
2023-02-22T13:44:38.468Z,66.45
2023-02-22T13:50:00.309Z,72.90
2023-02-22T13:55:11.382Z,76.38
2023-02-22T14:00:15.442Z,75.43
2023-02-22T14:05:51.695Z,82.43
2023-02-22T14:10:56.331Z,74.93
2023-02-22T14:16:05.159Z,79.30
2023-02-22T14:21:13.088Z,72.93
2023-02-22T14:26:35.443Z,63.17
2023-02-22T14:32:02.544Z,60.25
2023-02-22T14:37:27.729Z,57.20
2023-02-22T14:42:35.638Z,49.33
2023-02-22T14:48:01.456Z,48.00
2023-02-22T14:53:24.390Z,45.05
2023-02-22T14:58:32.519Z,45.72
2023-02-22T15:03:38.330Z,50.72
2023-02-22T15:08:42.613Z,53.70
2023-02-22T15:13:54.452Z,47.35
2023-02-22T15:19:01.182Z,49.97
2023-02-22T15:24:06.935Z,45.78
2023-02-22T15:29:16.502Z,51.58
2023-02-22T15:34:24.844Z,49.65
2023-02-22T15:39:30.271Z,45.80
2023-02-22T15:44:41.230Z,41.78
2023-02-22T15:49:44.493Z,41.15
2023-02-22T15:54:50.889Z,42.15
2023-02-22T15:59:56.683Z,46.58
2023-02-22T16:05:08.983Z,52.70
2023-02-22T16:10:31.085Z,49.70
2023-02-22T16:15:34.217Z,54.20
2023-02-22T16:20:37.290Z,50.75
2023-02-22T16:25:40.200Z,46.38
2023-02-22T16:30:43.555Z,50.17
2023-02-22T16:35:52.489Z,54.05
2023-02-22T16:40:56.699Z,57.33
2023-02-22T16:46:02.007Z,53.57
2023-02-22T16:51:19.067Z,57.38
2023-02-22T16:56:30.840Z,53.10
2023-02-22T17:01:35.259Z,55.40
2023-02-22T17:06:38.232Z,53.20
2023-02-22T17:11:41.036Z,47.83
2023-02-22T17:16:43.850Z,53.83
2023-02-22T17:21:46.626Z,49.92
2023-02-22T17:26:50.311Z,58.13
2023-02-22T17:31:53.244Z,55.15
2023-02-22T17:36:55.945Z,49.80
2023-02-22T17:41:59.285Z,52.45
2023-02-22T17:47:02.040Z,54.53
2023-02-22T17:52:06.643Z,48.17
2023-02-22T18:02:11.971Z,50.63
2023-02-22T18:07:16.769Z,52.63
2023-02-22T18:17:23.139Z,48.25
2023-02-22T18:22:25.964Z,55.38
2023-02-22T18:27:30.486Z,51.75
2023-02-22T18:32:33.847Z,52.58
2023-02-22T18:37:36.630Z,55.65
2023-02-22T18:42:40.166Z,51.72
2023-02-22T18:47:44.066Z,46.72
2023-02-22T18:52:47.253Z,49.17
2023-02-22T18:57:53.238Z,48.95
2023-02-22T19:02:58.077Z,51.65
2023-02-22T19:13:04.216Z,51.65
2023-02-22T19:18:07.461Z,52.20
2023-02-22T19:23:11.104Z,45.35
2023-02-22T19:28:16.401Z,53.00
2023-02-22T19:33:19.068Z,47.88
2023-02-22T19:38:21.852Z,44.63
2023-02-22T19:43:24.561Z,45.75
2023-02-22T19:48:27.243Z,50.53
2023-02-22T19:53:30.638Z,52.22
2023-02-22T19:58:37.048Z,45.83
2023-02-22T20:03:40.091Z,48.67
2023-02-22T20:08:42.859Z,39.33
2023-02-22T20:13:46.039Z,46.80
2023-02-22T20:18:49.319Z,46.35
2023-02-22T20:23:57.255Z,41.60
2023-02-22T20:29:00.744Z,44.85
2023-02-22T20:34:06.483Z,35.67
2023-02-22T20:39:13.680Z,41.60
2023-02-22T20:44:18.329Z,41.50
2023-02-22T20:49:21.728Z,42.00
2023-02-22T20:54:24.420Z,39.90
2023-02-22T20:59:29.377Z,40.08
2023-02-22T21:04:33.516Z,38.88
2023-02-22T21:09:37.532Z,38.78
2023-02-22T21:14:41.922Z,45.67
2023-02-22T21:19:44.812Z,44.10
2023-02-22T21:24:49.369Z,39.30
2023-02-22T21:29:52.882Z,43.42
2023-02-22T21:34:55.601Z,41.17
2023-02-22T21:39:59.419Z,44.10
2023-02-22T21:45:02.093Z,38.80
2023-02-22T21:50:08.144Z,42.92
2023-02-22T21:55:11.168Z,36.10
2023-02-22T22:00:19.285Z,38.17
2023-02-22T22:05:33.970Z,40.30
2023-02-22T22:10:36.825Z,40.10
2023-02-22T22:15:40.296Z,39.42
2023-02-22T22:20:45.086Z,31.10
2023-02-22T22:25:51.425Z,37.75
2023-02-22T22:30:54.325Z,38.00
2023-02-22T22:35:59.948Z,39.00
2023-02-22T22:41:05.983Z,39.58
2023-02-22T22:46:09.362Z,31.33
2023-02-22T22:51:14.983Z,35.08
2023-02-22T22:56:21.571Z,27.83
2023-02-22T23:01:28.206Z,30.73
2023-02-22T23:06:33.412Z,32.38
2023-02-22T23:11:36.545Z,32.80
2023-02-22T23:16:40.337Z,37.33
2023-02-22T23:21:46.582Z,30.90
2023-02-22T23:26:49.394Z,33.63
2023-02-22T23:31:54.832Z,32.58
2023-02-22T23:36:58.204Z,31.60
2023-02-22T23:42:01.190Z,34.00
2023-02-22T23:47:04.483Z,32.47
2023-02-22T23:52:08.888Z,35.22
2023-02-22T23:57:11.721Z,28.58
